Terminal Aerodrome Forecast
Issued by NWS Twin Cities, MN

Home | Current Version | Previous Version | Text Only | Print | Product List | Glossary Off
Versions: 1 2 3 4 5 6 7 8 9 10 11 12 13 14 15 16 17 18 19

000
FTUS43 KMPX 301432 AAA
TAFSTC
TAF AMD
KSTC 301432Z 3015/0112 01005KT P6SM BKN012 OVC040
      TEMPO 3015/3018 SCT012 OVC040
     FM301800 36006KT P6SM VCSH OVC008
     FM010300 32008KT P6SM OVC008=

USA.gov is the U.S. government's official web portal to all federal, state and local government web resources and services.